Angelina County Airport
KLFK : now visible

Airfield :











YOU CAN JOIN US ON...

 
LOGIN :

Register | Disclaimer

   EN    FR    IT 

 









Legend :    VFR   Marginal VFR   IFR   Intensive IFR   Very Intensive IFR
Visi :
Ceiling :
>= 8 km
>= 3000ft
5 to 8 km
1000 to 3000 ft
1500m to 5 km
500 to 1000 ft
800 to 1500m
200 to 500 ft
< 800m
< 200 ft
Symbols :   Thunderstorms  Fog  Heavy snow  Heavy precipitations  Wind > 20 kt






- Airport Elevation : 296 ft


KLFK - Angelina County

CURRENT METAR :
  • 082053Z AUTO 16010KT 10SM BKN021 18/13 A2997 RMK AO2 SLP147 T01830128 56038

EXPIRED METARs :
  • 082015Z AUTO 18009KT 10SM SCT023 19/13 A2997 RMK AO2 T01890128
  • 082006Z AUTO 19011KT 10SM BKN023 19/13 A2997 RMK AO2 T01890128
  • 081953Z AUTO 16009KT 10SM SCT024 19/13 A2998 RMK AO2 SLP149 T01890128
  • 081853Z AUTO 16009G15KT 10SM CLR 17/11 A3002 RMK AO2 PRESFR SLP165 T01720111

TAF KLFK
Valid from the 08 at 18:00 until the 09 at 18:00 UTC


081801Z 0818/0918 17009KT P6SM BKN010
FM081900 17010G16KT P6SM BKN250
FM090500 16008KT P6SM OVC025
FM090800 18009KT 4SM BR OVC007
FM091000 19008KT 2SM BR OVC003
FM091700 22011G18KT P6SM OVC015



MET'MAP, your aeronautical weather chart ! - Copyright ORBIFLY December 2007 - Disclaimer

ORBIFLY MET'MAP TEAM :

Programming & Development : Alexandra Zaïnal
Concept & original design : Baudouin d'Aumeries
Assistance for programming : Marc-Olivier Méhu
Technical & hardware support : Manuel Goepfert

Contact : metmap@orbifly.com




SOURCES & CREDITS :

   NOAA       Earth
Advisory